Aviation Digital Data Service (ADDS)

Output produced by METARs form (0211 UTC 16 January 2019)
found at http://www.aviationweather.gov/metar/data/
 
VDSR 160200Z 08007KT 9999 SCT017 26/20 Q1012
TAF VDSR 152300Z 1600/1618 17005KT 9999 FEW017
       
VDSV 160200Z 14005KT 9999 FEW015 SCT040 27/26 Q1013
TAF VDSV 152300Z 1600/1618 09007KT 9999 SCT017 SCT040